Time;durP1;ratioP1;P1;durP2;ratioP2;P2;SDS_P1;SDS_P2;PMS_P1;PMS_P2;Temp;Humidity;BMP_temperature;BMP_pressure;BME280_temperature;BME280_humidity;BME280_pressure;Samples;Min_cycle;Max_cycle;Signal;HPM_P1;HPM_P2
2023/08/31 00:01:33;;;;;;;13.67;3.27;;;18.90;71.60;;;;;;5069247;28;20180;-67
2023/08/31 00:04:00;;;;;;;12.53;2.73;;;19.20;71.60;;;;;;5069500;28;20538;-69
2023/08/31 00:06:28;;;;;;;11.00;2.13;;;19.20;70.50;;;;;;5071253;28;20193;-69
2023/08/31 00:08:55;;;;;;;7.90;2.20;;;19.40;69.60;;;;;;5068516;28;20640;-71
2023/08/31 00:11:25;;;;;;;14.53;2.80;;;19.40;68.90;;;;;;5068748;28;20214;-69
2023/08/31 00:13:53;;;;;;;10.00;2.13;;;19.60;68.80;;;;;;5070362;28;20179;-68
2023/08/31 00:16:27;;;;;;;13.57;2.00;;;19.40;68.90;;;;;;5070427;28;20270;-68
2023/08/31 00:18:56;;;;;;;5.40;1.60;;;19.20;69.10;;;;;;5071192;28;20681;-68
2023/08/31 00:21:24;;;;;;;10.93;2.37;;;18.90;69.80;;;;;;5068980;28;20184;-68
2023/08/31 00:23:51;;;;;;;7.67;1.90;;;19.10;70.50;;;;;;5066527;28;20194;-71
2023/08/31 00:26:18;;;;;;;9.27;1.87;;;19.30;70.00;;;;;;5074613;28;20335;-68
2023/08/31 00:28:46;;;;;;;8.60;2.00;;;19.30;67.70;;;;;;5067864;28;20208;-68
2023/08/31 00:31:13;;;;;;;15.17;2.63;;;19.50;67.50;;;;;;5069511;28;20183;-70
2023/08/31 00:33:40;;;;;;;15.93;2.83;;;19.80;67.40;;;;;;5076967;28;20215;-66
2023/08/31 00:36:08;;;;;;;11.97;2.63;;;19.40;67.20;;;;;;5068971;28;20899;-65
2023/08/31 00:38:36;;;;;;;10.57;2.10;;;19.20;69.10;;;;;;5066221;28;20199;-65
2023/08/31 00:41:03;;;;;;;7.43;1.90;;;19.30;69.10;;;;;;5064930;28;20191;-67
2023/08/31 00:43:32;;;;;;;9.00;2.33;;;19.20;69.30;;;;;;5060253;28;20202;-65
2023/08/31 00:45:59;;;;;;;7.57;2.10;;;19.20;70.30;;;;;;5056910;28;20309;-66
2023/08/31 00:48:27;;;;;;;9.93;2.13;;;18.80;70.30;;;;;;5067333;28;20187;-68
2023/08/31 00:50:56;;;;;;;6.00;1.90;;;18.90;70.00;;;;;;5067599;28;20187;-66
2023/08/31 00:53:27;;;;;;;7.20;1.70;;;19.10;69.50;;;;;;5067039;28;20210;-65
2023/08/31 00:55:54;;;;;;;8.60;1.80;;;19.00;69.20;;;;;;5069360;28;20788;-66
2023/08/31 00:58:21;;;;;;;8.40;2.17;;;18.80;70.90;;;;;;5070495;28;20264;-66
2023/08/31 01:01:09;;;;;;;6.27;1.73;;;18.80;71.10;;;;;;5074117;28;20669;-67
2023/08/31 01:03:51;;;;;;;6.93;2.53;;;18.80;70.10;;;;;;5069620;28;20187;-66
2023/08/31 01:06:44;;;;;;;11.90;2.37;;;18.80;70.70;;;;;;5063060;28;20188;-67
2023/08/31 01:09:26;;;;;;;9.50;2.30;;;19.30;69.00;;;;;;5067202;28;20194;-67
2023/08/31 01:12:29;;;;;;;10.07;1.83;;;19.70;68.60;;;;;;5075187;28;20168;-65
2023/08/31 01:15:10;;;;;;;10.73;2.07;;;19.50;69.10;;;;;;5070522;28;20183;-67
2023/08/31 01:17:57;;;;;;;7.73;2.13;;;19.30;69.00;;;;;;5062042;28;20212;-68
2023/08/31 01:20:38;;;;;;;15.70;2.97;;;19.20;69.50;;;;;;5070811;28;20292;-67
2023/08/31 01:23:16;;;;;;;9.60;2.20;;;19.40;69.00;;;;;;5070457;28;20316;-66
2023/08/31 01:25:44;;;;;;;8.90;2.57;;;19.70;68.90;;;;;;5069377;28;20273;-66
2023/08/31 01:28:12;;;;;;;10.23;2.20;;;19.80;67.00;;;;;;5069527;28;20179;-65
2023/08/31 01:30:40;;;;;;;13.30;2.00;;;20.00;66.30;;;;;;5063661;28;20187;-66
2023/08/31 01:33:08;;;;;;;10.90;2.33;;;20.00;67.00;;;;;;5069200;28;20224;-66
2023/08/31 01:35:52;;;;;;;8.50;2.23;;;19.90;67.20;;;;;;5069402;28;20270;-64
2023/08/31 01:38:25;;;;;;;7.87;1.80;;;19.90;66.70;;;;;;5066693;28;20267;-66
2023/08/31 01:41:11;;;;;;;8.43;3.00;;;19.50;66.60;;;;;;5075952;28;20727;-66
2023/08/31 01:43:42;;;;;;;7.27;2.07;;;19.50;67.80;;;;;;5069690;28;20187;-66
2023/08/31 01:46:10;;;;;;;10.10;2.30;;;19.60;66.00;;;;;;5069934;28;20195;-66
2023/08/31 01:48:41;;;;;;;8.77;2.53;;;19.80;67.10;;;;;;5069401;28;20194;-68
2023/08/31 01:51:09;;;;;;;11.63;2.50;;;20.00;66.80;;;;;;5064580;28;20187;-67
2023/08/31 01:53:37;;;;;;;7.37;2.30;;;20.30;66.50;;;;;;5067549;28;20182;-65
2023/08/31 01:56:04;;;;;;;13.17;2.63;;;20.00;66.70;;;;;;5068384;28;20195;-66
2023/08/31 01:58:32;;;;;;;12.03;2.47;;;19.90;66.90;;;;;;5072987;28;20721;-68
2023/08/31 02:00:59;;;;;;;15.53;2.90;;;20.30;66.60;;;;;;5069412;28;20191;-68
2023/08/31 02:03:27;;;;;;;10.97;2.47;;;20.60;65.40;;;;;;5067257;28;20172;-67
2023/08/31 02:05:54;;;;;;;11.63;2.40;;;20.90;64.70;;;;;;5070231;28;20560;-66
2023/08/31 02:08:22;;;;;;;11.57;2.03;;;21.10;64.10;;;;;;5071286;28;20836;-66
2023/08/31 02:10:49;;;;;;;16.77;2.53;;;21.10;64.10;;;;;;5069916;28;20786;-68
2023/08/31 02:13:16;;;;;;;10.73;2.43;;;21.20;62.90;;;;;;5072327;28;20179;-66
2023/08/31 02:15:44;;;;;;;11.53;2.37;;;20.90;62.60;;;;;;5069970;28;20191;-69
2023/08/31 02:18:11;;;;;;;7.30;1.90;;;20.70;63.30;;;;;;5072574;28;20191;-65
2023/08/31 02:20:39;;;;;;;10.43;2.10;;;21.10;62.10;;;;;;5073217;28;20227;-67
2023/08/31 02:23:06;;;;;;;8.37;1.83;;;21.40;61.10;;;;;;5074054;28;20234;-66
2023/08/31 02:25:33;;;;;;;10.83;2.00;;;21.20;61.00;;;;;;5072071;28;20194;-66
2023/08/31 02:28:01;;;;;;;7.27;1.87;;;21.10;61.50;;;;;;5073746;28;20190;-70
2023/08/31 02:30:30;;;;;;;9.00;1.90;;;21.20;60.60;;;;;;5073700;28;20607;-67
2023/08/31 02:32:57;;;;;;;6.03;1.77;;;21.50;59.50;;;;;;5073496;28;20221;-68
2023/08/31 02:35:24;;;;;;;9.53;2.13;;;21.30;59.90;;;;;;5073281;28;20699;-68
2023/08/31 02:37:52;;;;;;;8.63;1.83;;;21.30;59.40;;;;;;5073469;28;20183;-70
2023/08/31 02:40:21;;;;;;;7.53;1.97;;;21.10;60.70;;;;;;5073653;28;20257;-68
2023/08/31 02:42:52;;;;;;;8.40;2.00;;;21.30;59.00;;;;;;5074036;28;20187;-70
2023/08/31 02:45:19;;;;;;;10.33;1.93;;;21.60;57.10;;;;;;5077862;28;20191;-68
2023/08/31 02:47:49;;;;;;;6.97;1.90;;;22.10;56.80;;;;;;5072003;28;20219;-70
2023/08/31 02:50:16;;;;;;;7.53;1.93;;;22.80;54.60;;;;;;5075062;28;20187;-68
2023/08/31 02:52:44;;;;;;;5.60;2.17;;;22.80;54.00;;;;;;5072634;28;20262;-71
2023/08/31 02:55:11;;;;;;;11.47;2.27;;;22.80;54.00;;;;;;5071718;28;20663;-70
2023/08/31 02:57:39;;;;;;;7.03;2.00;;;22.50;54.70;;;;;;5071395;28;20328;-68
2023/08/31 03:00:12;;;;;;;7.67;2.07;;;22.40;54.10;;;;;;5066916;28;20712;-65
2023/08/31 03:02:40;;;;;;;11.93;2.40;;;22.20;56.40;;;;;;5070398;28;20185;-71
2023/08/31 03:05:08;;;;;;;10.37;2.10;;;22.50;57.50;;;;;;5072498;28;20194;-68
2023/08/31 03:07:35;;;;;;;8.40;2.00;;;22.30;57.70;;;;;;5070795;28;20229;-65
2023/08/31 03:10:02;;;;;;;11.03;2.27;;;22.20;58.60;;;;;;5071631;28;20646;-66
2023/08/31 03:12:30;;;;;;;9.20;2.17;;;21.90;58.70;;;;;;5069251;28;20191;-68
2023/08/31 03:14:57;;;;;;;10.67;1.90;;;22.10;57.90;;;;;;5071916;28;20272;-71
2023/08/31 03:17:25;;;;;;;10.97;1.80;;;22.20;57.30;;;;;;5072265;28;20191;-70
2023/08/31 03:19:52;;;;;;;10.03;1.90;;;22.60;56.70;;;;;;5072129;28;20215;-68
2023/08/31 03:22:19;;;;;;;7.17;2.10;;;22.50;56.30;;;;;;5072415;28;20642;-69
2023/08/31 03:24:47;;;;;;;5.07;1.73;;;22.80;52.60;;;;;;5072031;28;20233;-66
2023/08/31 03:27:15;;;;;;;9.23;1.60;;;22.80;53.80;;;;;;5070900;28;20220;-67
2023/08/31 03:29:43;;;;;;;8.70;1.63;;;22.80;53.30;;;;;;5071123;28;20630;-66
2023/08/31 03:32:10;;;;;;;5.13;2.00;;;22.80;52.10;;;;;;5071193;28;20183;-70
2023/08/31 03:34:37;;;;;;;8.17;1.80;;;23.40;50.90;;;;;;5067965;28;20261;-73
2023/08/31 03:37:05;;;;;;;4.93;1.43;;;22.80;51.90;;;;;;5071947;28;20247;-71
2023/08/31 03:39:32;;;;;;;6.50;1.67;;;22.80;52.90;;;;;;5064531;28;20301;-72
2023/08/31 03:42:00;;;;;;;8.13;1.30;;;22.90;51.40;;;;;;5066773;28;20219;-69
2023/08/31 03:44:27;;;;;;;5.93;1.60;;;23.40;49.60;;;;;;5071950;28;20207;-70
2023/08/31 03:46:55;;;;;;;6.67;1.70;;;23.20;51.20;;;;;;5072415;28;20228;-72
2023/08/31 03:49:22;;;;;;;8.90;2.10;;;23.90;50.60;;;;;;5068576;28;20187;-71
2023/08/31 03:51:49;;;;;;;7.80;1.87;;;23.20;53.10;;;;;;5068392;28;20191;-73
2023/08/31 03:54:16;;;;;;;7.03;2.40;;;22.30;52.50;;;;;;5072402;28;20191;-73
2023/08/31 03:56:44;;;;;;;5.07;1.60;;;22.80;51.10;;;;;;5073638;28;20518;-70
2023/08/31 03:59:11;;;;;;;7.77;1.60;;;23.10;50.20;;;;;;5072315;28;20215;-71
2023/08/31 04:01:39;;;;;;;7.27;1.50;;;23.80;49.60;;;;;;5070894;28;20187;-69
2023/08/31 04:04:07;;;;;;;4.37;1.40;;;23.90;46.20;;;;;;5069826;28;20182;-67
2023/08/31 04:06:34;;;;;;;7.13;1.83;;;24.30;47.80;;;;;;5070126;28;20688;-68
2023/08/31 04:09:02;;;;;;;9.03;2.10;;;24.60;47.40;;;;;;5069174;28;20178;-71
2023/08/31 04:11:29;;;;;;;8.30;1.67;;;24.30;49.00;;;;;;5069655;28;20266;-71
2023/08/31 04:13:57;;;;;;;10.33;1.70;;;24.60;49.00;;;;;;5071043;28;20193;-69
2023/08/31 04:16:24;;;;;;;5.30;1.67;;;23.80;49.90;;;;;;5070096;28;20519;-71
2023/08/31 04:18:51;;;;;;;7.67;1.73;;;23.90;50.00;;;;;;5064854;28;20215;-71
2023/08/31 04:21:19;;;;;;;8.47;1.67;;;24.70;48.80;;;;;;5069753;28;20233;-72
2023/08/31 04:23:46;;;;;;;7.83;1.90;;;24.20;49.20;;;;;;5069609;28;20182;-72
2023/08/31 04:26:14;;;;;;;8.07;1.80;;;22.90;50.90;;;;;;5067218;28;20195;-72
2023/08/31 04:28:42;;;;;;;8.23;1.73;;;21.80;54.70;;;;;;5068991;28;20184;-68
2023/08/31 04:31:10;;;;;;;8.20;2.20;;;21.70;55.30;;;;;;5068670;28;20550;-71
2023/08/31 04:33:40;;;;;;;10.27;2.10;;;21.20;56.40;;;;;;5065746;28;20230;-72
2023/08/31 04:36:07;;;;;;;8.87;1.60;;;21.10;57.00;;;;;;5068104;28;20654;-72
2023/08/31 04:38:38;;;;;;;13.70;2.30;;;20.90;57.10;;;;;;5068812;28;20195;-70
2023/08/31 04:41:05;;;;;;;9.87;1.90;;;20.80;57.10;;;;;;5066602;28;20197;-66
2023/08/31 04:43:33;;;;;;;11.87;2.13;;;20.70;58.20;;;;;;5068807;28;20171;-69
2023/08/31 04:46:00;;;;;;;11.93;3.70;;;21.20;57.10;;;;;;5070356;28;20262;-72
2023/08/31 04:48:27;;;;;;;11.13;4.27;;;21.20;56.60;;;;;;5070801;28;20183;-72
2023/08/31 04:50:57;;;;;;;11.07;2.00;;;21.60;56.00;;;;;;5069183;28;20273;-74
2023/08/31 04:53:26;;;;;;;5.87;1.77;;;23.00;52.80;;;;;;5065546;28;20255;-74
2023/08/31 04:55:53;;;;;;;10.13;2.60;;;23.80;49.80;;;;;;5052104;28;20199;-74
2023/08/31 04:58:20;;;;;;;9.67;2.33;;;23.30;51.80;;;;;;5072189;28;20176;-74
2023/08/31 05:00:48;;;;;;;7.90;1.73;;;23.90;50.10;;;;;;5071627;28;20187;-74
2023/08/31 05:03:15;;;;;;;7.63;1.50;;;24.20;49.40;;;;;;5072409;28;20206;-72
2023/08/31 05:05:43;;;;;;;9.53;2.30;;;24.90;47.40;;;;;;5070875;28;20195;-75
2023/08/31 05:08:11;;;;;;;11.67;2.20;;;24.50;48.80;;;;;;5071100;28;20189;-70
2023/08/31 05:10:39;;;;;;;8.77;1.73;;;24.80;48.70;;;;;;5069844;28;20171;-75
2023/08/31 05:13:06;;;;;;;9.50;2.17;;;25.50;47.60;;;;;;5071298;28;20199;-74
2023/08/31 05:15:36;;;;;;;8.03;2.37;;;24.40;50.20;;;;;;5072355;28;20179;-73
2023/08/31 05:18:04;;;;;;;9.23;2.17;;;24.00;51.70;;;;;;5071031;28;20689;-71
2023/08/31 05:20:32;;;;;;;6.43;2.00;;;23.80;52.40;;;;;;5072164;28;20218;-72
2023/08/31 05:22:59;;;;;;;6.43;1.80;;;22.20;55.70;;;;;;5071551;28;20187;-71
2023/08/31 05:25:28;;;;;;;6.60;1.97;;;21.80;58.30;;;;;;5071723;28;20300;-73
2023/08/31 05:27:55;;;;;;;10.93;2.20;;;21.30;58.70;;;;;;5069004;28;20183;-68
2023/08/31 05:30:22;;;;;;;9.40;2.07;;;21.00;59.80;;;;;;5069631;28;20195;-71
2023/08/31 05:32:50;;;;;;;16.47;2.77;;;20.90;61.10;;;;;;5065641;28;20705;-68
2023/08/31 05:35:19;;;;;;;12.70;2.00;;;21.10;60.40;;;;;;5069394;28;20213;-68
2023/08/31 05:37:46;;;;;;;9.10;1.83;;;21.10;59.20;;;;;;5068542;28;20382;-67
2023/08/31 05:40:14;;;;;;;11.23;2.13;;;20.90;61.30;;;;;;5074536;28;20227;-68
2023/08/31 05:42:41;;;;;;;10.87;2.00;;;21.30;58.30;;;;;;5074437;28;20198;-68
2023/08/31 05:45:09;;;;;;;10.40;2.03;;;20.80;59.40;;;;;;5067311;28;20175;-68
2023/08/31 05:47:36;;;;;;;6.90;1.70;;;21.20;60.40;;;;;;5072633;28;20595;-66
2023/08/31 05:50:04;;;;;;;6.47;1.60;;;22.30;56.40;;;;;;5074835;28;20254;-66
2023/08/31 05:52:31;;;;;;;12.90;1.93;;;22.30;55.10;;;;;;5067364;28;20194;-65
2023/08/31 05:54:58;;;;;;;11.50;1.90;;;21.80;55.50;;;;;;5071282;28;20184;-66
2023/08/31 05:57:30;;;;;;;13.57;2.40;;;21.70;57.10;;;;;;5073084;28;20645;-65
2023/08/31 05:59:57;;;;;;;7.10;1.87;;;22.30;54.10;;;;;;5063427;28;20215;-67
2023/08/31 06:02:24;;;;;;;11.13;2.30;;;21.20;56.80;;;;;;5068215;28;20195;-66
2023/08/31 06:04:52;;;;;;;11.97;1.87;;;21.00;58.20;;;;;;5073085;28;20193;-66
2023/08/31 06:07:19;;;;;;;10.33;2.10;;;21.40;57.50;;;;;;5073665;28;20274;-68
2023/08/31 06:09:46;;;;;;;7.50;1.70;;;22.10;54.90;;;;;;5069315;28;20758;-67
2023/08/31 06:12:13;;;;;;;7.50;1.83;;;22.40;53.40;;;;;;5071711;28;20210;-66
2023/08/31 06:14:41;;;;;;;8.00;1.40;;;21.80;55.60;;;;;;5070828;28;20190;-66
2023/08/31 06:17:08;;;;;;;9.53;1.97;;;21.00;56.80;;;;;;5069905;28;20179;-65
2023/08/31 06:19:38;;;;;;;6.73;2.00;;;22.00;55.90;;;;;;5071158;28;20320;-67
2023/08/31 06:22:05;;;;;;;6.53;1.70;;;22.10;55.00;;;;;;5069369;28;20210;-67
2023/08/31 06:24:32;;;;;;;8.10;1.83;;;22.20;54.70;;;;;;5072829;28;20183;-66
2023/08/31 06:27:00;;;;;;;12.20;1.97;;;22.50;55.30;;;;;;5073987;28;20502;-66
2023/08/31 06:29:29;;;;;;;13.33;2.30;;;22.70;54.30;;;;;;5073729;28;20646;-66
2023/08/31 06:31:57;;;;;;;10.73;2.17;;;23.20;52.40;;;;;;5073883;28;20235;-67
2023/08/31 06:34:25;;;;;;;8.30;1.90;;;23.10;52.40;;;;;;5072297;28;20235;-67
2023/08/31 06:36:52;;;;;;;5.87;1.53;;;22.30;55.50;;;;;;5071880;28;20179;-66
2023/08/31 06:39:20;;;;;;;9.10;1.87;;;22.10;56.90;;;;;;5072911;28;20211;-66
2023/08/31 06:41:47;;;;;;;8.40;2.00;;;22.20;55.30;;;;;;5073722;28;20183;-66
2023/08/31 06:44:14;;;;;;;7.63;1.90;;;22.00;56.30;;;;;;5071183;28;20187;-66
2023/08/31 06:46:42;;;;;;;11.00;2.23;;;21.80;56.70;;;;;;5071925;28;20535;-66
2023/08/31 06:49:10;;;;;;;10.80;2.47;;;21.30;57.90;;;;;;5071009;28;20336;-66
2023/08/31 06:51:37;;;;;;;9.23;2.00;;;20.60;61.20;;;;;;5070927;28;20233;-66
2023/08/31 06:54:07;;;;;;;9.27;2.07;;;20.00;62.30;;;;;;5072164;28;20189;-66
2023/08/31 06:56:36;;;;;;;13.07;2.23;;;19.60;63.80;;;;;;5069760;28;20261;-66
2023/08/31 06:59:04;;;;;;;10.17;2.20;;;19.30;65.60;;;;;;5073514;28;20225;-66
2023/08/31 07:01:32;;;;;;;14.73;2.77;;;19.10;65.80;;;;;;5071858;28;20655;-66
2023/08/31 07:04:00;;;;;;;11.50;2.97;;;19.00;66.30;;;;;;5066520;28;20537;-66
2023/08/31 07:06:27;;;;;;;11.63;2.20;;;18.90;66.80;;;;;;5070488;28;20229;-67
2023/08/31 07:08:54;;;;;;;10.87;2.40;;;18.70;67.70;;;;;;5068614;28;20187;-65
2023/08/31 07:11:21;;;;;;;9.80;2.27;;;18.60;68.50;;;;;;5071589;28;20282;-65
2023/08/31 07:13:49;;;;;;;13.47;2.10;;;18.60;69.00;;;;;;5071555;28;20191;-66
2023/08/31 07:16:17;;;;;;;11.97;2.33;;;18.60;67.80;;;;;;5073064;28;20205;-66
2023/08/31 07:18:45;;;;;;;11.20;2.40;;;18.30;68.70;;;;;;5065797;28;20262;-65
2023/08/31 07:21:12;;;;;;;11.17;2.70;;;18.20;69.10;;;;;;5073306;28;20205;-66
2023/08/31 07:23:39;;;;;;;11.10;2.40;;;18.20;69.70;;;;;;5072191;28;20185;-67
2023/08/31 07:26:07;;;;;;;8.40;2.33;;;18.10;70.70;;;;;;5071278;28;20270;-67
2023/08/31 07:28:35;;;;;;;7.60;2.00;;;17.90;70.30;;;;;;5070679;28;20546;-66
2023/08/31 07:31:06;;;;;;;9.67;1.80;;;17.80;70.90;;;;;;5070231;28;20187;-66
2023/08/31 07:33:35;;;;;;;13.57;2.10;;;17.80;71.50;;;;;;5072029;28;20241;-66
2023/08/31 07:36:04;;;;;;;14.53;2.40;;;17.70;71.70;;;;;;5071426;28;20187;-65
2023/08/31 07:38:32;;;;;;;12.77;2.43;;;17.70;72.30;;;;;;5072797;28;20198;-67
2023/08/31 07:41:00;;;;;;;9.83;2.13;;;17.70;72.20;;;;;;5068000;28;20637;-67
2023/08/31 07:43:27;;;;;;;10.87;2.53;;;17.50;72.80;;;;;;5072254;28;20183;-66
2023/08/31 07:45:55;;;;;;;9.27;1.80;;;17.50;73.10;;;;;;5069289;28;20183;-66
2023/08/31 07:48:22;;;;;;;10.97;2.73;;;17.40;73.20;;;;;;5071311;28;20266;-67
2023/08/31 07:50:50;;;;;;;15.63;2.97;;;17.30;73.60;;;;;;5068226;28;20182;-66
2023/08/31 07:53:20;;;;;;;13.23;2.63;;;17.30;73.70;;;;;;5072533;28;20215;-65
2023/08/31 07:56:05;;;;;;;8.87;2.83;;;17.30;74.20;;;;;;5065401;28;20213;-67
2023/08/31 07:58:33;;;;;;;13.10;2.97;;;17.30;74.30;;;;;;5066126;28;20191;-66
2023/08/31 08:01:00;;;;;;;14.57;2.87;;;17.20;74.40;;;;;;5069665;28;20251;-65
2023/08/31 08:03:27;;;;;;;11.07;2.40;;;17.20;74.60;;;;;;5070851;28;20179;-66
2023/08/31 08:05:57;;;;;;;12.07;2.60;;;17.20;74.80;;;;;;5067117;28;20247;-67
2023/08/31 08:08:24;;;;;;;8.37;2.40;;;17.10;75.00;;;;;;5068662;28;20252;-67
2023/08/31 08:10:55;;;;;;;8.53;2.37;;;17.00;75.20;;;;;;5072774;28;20240;-65
2023/08/31 08:13:22;;;;;;;7.07;2.37;;;17.00;75.40;;;;;;5067694;28;20268;-66
2023/08/31 08:15:50;;;;;;;14.30;3.43;;;17.00;75.40;;;;;;5067668;28;20189;-67
2023/08/31 08:18:17;;;;;;;10.20;2.73;;;16.90;75.40;;;;;;5070163;28;20194;-70
2023/08/31 08:20:47;;;;;;;16.63;3.03;;;16.80;75.60;;;;;;5071174;28;20276;-67
2023/08/31 08:23:15;;;;;;;9.57;2.30;;;16.80;75.70;;;;;;5071614;28;20523;-68
2023/08/31 08:25:43;;;;;;;12.17;2.90;;;16.80;75.90;;;;;;5071721;28;20229;-70
2023/08/31 08:28:10;;;;;;;11.77;2.80;;;16.80;76.20;;;;;;5070796;28;20178;-67
2023/08/31 08:30:38;;;;;;;10.33;3.30;;;16.80;76.20;;;;;;5071660;28;20171;-71
2023/08/31 08:33:06;;;;;;;11.10;3.03;;;16.80;76.20;;;;;;5070952;28;20224;-72
2023/08/31 08:35:33;;;;;;;14.10;3.60;;;16.80;76.20;;;;;;5066868;28;20182;-69
2023/08/31 08:38:01;;;;;;;13.17;3.30;;;16.70;76.50;;;;;;5072258;28;20546;-72
2023/08/31 08:40:31;;;;;;;11.30;3.13;;;16.70;76.60;;;;;;5071248;28;20654;-69
2023/08/31 08:43:01;;;;;;;11.53;3.60;;;16.60;76.50;;;;;;5071458;28;20277;-69
2023/08/31 08:45:41;;;;;;;12.70;2.97;;;16.50;76.80;;;;;;5071095;28;20174;-72
2023/08/31 08:48:09;;;;;;;15.80;3.50;;;16.50;77.10;;;;;;5067340;28;20204;-73
2023/08/31 08:50:37;;;;;;;8.53;3.27;;;16.50;77.10;;;;;;5068244;28;20183;-72
2023/08/31 08:53:06;;;;;;;11.40;3.47;;;16.40;77.20;;;;;;5071523;28;20182;-67
2023/08/31 08:55:33;;;;;;;15.33;5.10;;;16.40;77.60;;;;;;5070727;28;20190;-70
2023/08/31 08:58:03;;;;;;;11.93;2.73;;;16.40;77.40;;;;;;5070338;28;20209;-67
2023/08/31 09:00:31;;;;;;;13.60;4.20;;;16.30;77.50;;;;;;5063087;28;20221;-73
2023/08/31 09:03:03;;;;;;;14.77;4.60;;;16.30;77.70;;;;;;5069596;28;20189;-73
2023/08/31 09:05:34;;;;;;;14.97;4.13;;;16.30;77.90;;;;;;5068504;28;20185;-70
2023/08/31 09:08:07;;;;;;;10.80;4.13;;;16.30;77.90;;;;;;5076375;28;20176;-72
2023/08/31 09:10:39;;;;;;;11.63;4.83;;;16.20;78.10;;;;;;5069795;28;20185;-68
2023/08/31 09:13:11;;;;;;;16.40;5.53;;;16.20;78.20;;;;;;5071742;28;20590;-68
2023/08/31 09:15:47;;;;;;;16.43;4.80;;;16.20;78.50;;;;;;5072944;28;20273;-67
2023/08/31 09:18:32;;;;;;;16.17;4.23;;;16.20;78.40;;;;;;5075347;28;20187;-68
2023/08/31 09:21:01;;;;;;;14.43;5.03;;;16.20;78.50;;;;;;5067530;28;20188;-70
2023/08/31 09:23:28;;;;;;;14.97;5.17;;;16.20;78.60;;;;;;5070691;28;20282;-69
2023/08/31 09:25:56;;;;;;;20.03;6.07;;;16.20;78.70;;;;;;5074018;28;20191;-70
2023/08/31 09:28:29;;;;;;;19.67;5.83;;;16.10;78.80;;;;;;5074091;28;20527;-72
2023/08/31 09:31:09;;;;;;;18.17;5.47;;;16.20;78.90;;;;;;5074698;28;20217;-67
2023/08/31 09:33:37;;;;;;;24.47;11.00;;;16.20;78.90;;;;;;5073438;28;20241;-71
2023/08/31 09:36:07;;;;;;;28.17;12.77;;;16.10;79.20;;;;;;5074389;28;20175;-69
2023/08/31 09:38:43;;;;;;;45.33;26.07;;;16.20;79.50;;;;;;5069707;28;20189;-67
2023/08/31 09:41:11;;;;;;;59.93;33.40;;;16.20;79.10;;;;;;5074723;28;20191;-67
2023/08/31 09:43:38;;;;;;;53.47;31.83;;;16.30;79.20;;;;;;5074915;28;20205;-68
2023/08/31 09:46:06;;;;;;;59.33;32.57;;;16.30;79.10;;;;;;5070835;28;20196;-66
2023/08/31 09:48:33;;;;;;;43.70;24.17;;;16.40;79.10;;;;;;5073897;28;20203;-66
2023/08/31 09:51:07;;;;;;;35.03;19.43;;;16.50;78.90;;;;;;5072105;28;20536;-67
2023/08/31 09:53:37;;;;;;;26.07;13.93;;;16.50;78.90;;;;;;5074467;28;20202;-67
2023/08/31 09:56:12;;;;;;;27.90;12.60;;;16.50;78.80;;;;;;5074655;28;20553;-71
2023/08/31 09:58:40;;;;;;;24.23;11.47;;;16.50;78.50;;;;;;5072851;28;20189;-72
2023/08/31 10:01:07;;;;;;;26.07;12.10;;;16.60;78.50;;;;;;5074522;28;20195;-66
2023/08/31 10:03:35;;;;;;;19.47;9.90;;;16.60;78.40;;;;;;5068086;28;20190;-74
2023/08/31 10:06:03;;;;;;;22.77;8.97;;;16.60;78.30;;;;;;5072742;28;20190;-73
2023/08/31 10:08:31;;;;;;;23.67;8.53;;;16.60;78.40;;;;;;5071786;28;20190;-68
2023/08/31 10:11:03;;;;;;;22.47;8.43;;;16.60;78.90;;;;;;5071177;28;20195;-73
2023/08/31 10:13:35;;;;;;;17.87;6.57;;;16.50;78.60;;;;;;5073693;28;20181;-71
2023/08/31 10:16:06;;;;;;;20.70;8.37;;;16.50;78.80;;;;;;5070644;28;20575;-73
2023/08/31 10:18:38;;;;;;;24.37;8.87;;;16.50;78.50;;;;;;5074356;28;20190;-74
2023/08/31 10:21:06;;;;;;;17.33;8.20;;;16.40;78.60;;;;;;5073650;28;20190;-74
2023/08/31 10:23:35;;;;;;;23.90;8.67;;;16.40;79.00;;;;;;5069197;28;20178;-70
2023/08/31 10:26:03;;;;;;;16.90;7.00;;;16.30;79.30;;;;;;5071996;28;20194;-71
2023/08/31 10:28:38;;;;;;;17.57;6.63;;;16.30;79.30;;;;;;5075324;28;20178;-73
2023/08/31 10:31:17;;;;;;;17.10;6.10;;;16.20;79.50;;;;;;5068711;28;20273;-72
2023/08/31 10:33:46;;;;;;;18.17;6.70;;;16.10;79.80;;;;;;5071852;28;20278;-74
2023/08/31 10:36:18;;;;;;;18.90;6.23;;;16.00;80.30;;;;;;5074517;28;20190;-72
2023/08/31 10:39:02;;;;;;;13.10;5.57;;;16.00;80.60;;;;;;5075312;28;20709;-73
2023/08/31 10:41:38;;;;;;;17.07;6.47;;;15.80;80.90;;;;;;5073375;28;20225;-70
2023/08/31 10:44:27;;;;;;;18.53;6.53;;;15.80;81.20;;;;;;5074662;28;20550;-71
2023/08/31 10:46:55;;;;;;;16.40;5.10;;;15.80;81.70;;;;;;5070635;28;20186;-71
2023/08/31 10:49:23;;;;;;;13.97;4.87;;;15.70;81.30;;;;;;5072206;28;20179;-72
2023/08/31 10:52:14;;;;;;;19.10;6.13;;;15.70;81.90;;;;;;5070078;28;20187;-71
2023/08/31 10:54:42;;;;;;;13.93;5.80;;;15.70;82.10;;;;;;5071404;28;20807;-66
2023/08/31 10:57:12;;;;;;;14.77;5.77;;;15.60;82.30;;;;;;5072566;28;20248;-67
2023/08/31 10:59:53;;;;;;;14.87;5.60;;;15.50;82.20;;;;;;5069343;28;20216;-67
2023/08/31 11:02:47;;;;;;;14.83;5.10;;;15.50;82.50;;;;;;5073939;28;20183;-69
2023/08/31 11:05:18;;;;;;;15.67;4.90;;;15.30;82.60;;;;;;5067800;28;20332;-66
2023/08/31 11:07:48;;;;;;;11.03;5.23;;;15.30;83.10;;;;;;5071916;28;20181;-66
2023/08/31 11:10:23;;;;;;;16.77;5.53;;;15.30;83.10;;;;;;5071308;28;20320;-67
2023/08/31 11:12:55;;;;;;;14.80;5.77;;;15.30;83.20;;;;;;5072090;28;20250;-67
2023/08/31 11:15:25;;;;;;;15.57;5.43;;;15.20;83.40;;;;;;5069298;28;20200;-66
2023/08/31 11:17:56;;;;;;;16.63;5.10;;;15.20;83.40;;;;;;5072441;28;20229;-65
2023/08/31 11:20:28;;;;;;;14.83;5.33;;;15.20;83.60;;;;;;5066850;28;20220;-65
2023/08/31 11:22:55;;;;;;;14.00;4.40;;;15.20;83.60;;;;;;5070950;28;20300;-64
2023/08/31 11:25:24;;;;;;;16.40;5.33;;;15.20;83.50;;;;;;5071514;28;20202;-64
2023/08/31 11:27:56;;;;;;;13.27;5.87;;;15.10;83.80;;;;;;5071484;28;20209;-68
2023/08/31 11:30:25;;;;;;;18.53;6.00;;;14.90;84.10;;;;;;5071277;28;20195;-64
2023/08/31 11:32:53;;;;;;;16.67;5.97;;;14.90;84.30;;;;;;5071592;28;20249;-68
2023/08/31 11:35:23;;;;;;;17.53;5.50;;;14.80;84.30;;;;;;5073535;28;20673;-65
2023/08/31 11:37:52;;;;;;;15.67;6.40;;;14.80;84.50;;;;;;5071603;28;20254;-65
2023/08/31 11:40:20;;;;;;;15.13;5.40;;;14.80;84.70;;;;;;5071363;28;20287;-68
2023/08/31 11:42:52;;;;;;;18.87;5.83;;;14.70;84.80;;;;;;5071440;28;20183;-66
2023/08/31 11:45:25;;;;;;;19.23;5.87;;;14.60;85.10;;;;;;5073085;28;20207;-65
2023/08/31 11:47:53;;;;;;;24.23;5.90;;;14.60;85.40;;;;;;5073210;28;20194;-66
2023/08/31 11:50:21;;;;;;;20.17;6.63;;;14.70;85.70;;;;;;5071971;28;20247;-67
2023/08/31 11:52:48;;;;;;;18.47;6.23;;;14.60;85.70;;;;;;5072876;28;20191;-65
2023/08/31 11:55:20;;;;;;;15.47;5.70;;;14.60;85.80;;;;;;5073277;28;20175;-66
2023/08/31 11:57:54;;;;;;;15.17;5.77;;;14.60;86.10;;;;;;5073043;28;20649;-66
2023/08/31 12:00:23;;;;;;;16.57;5.73;;;14.60;86.10;;;;;;5072896;28;20221;-70
2023/08/31 12:03:04;;;;;;;17.93;5.80;;;14.60;86.10;;;;;;5070687;28;20222;-65
2023/08/31 12:05:46;;;;;;;17.70;6.10;;;14.50;86.00;;;;;;5073379;28;20551;-66
2023/08/31 12:08:14;;;;;;;18.00;5.57;;;14.50;86.00;;;;;;5072537;28;20183;-66
2023/08/31 12:10:42;;;;;;;16.40;6.23;;;14.40;86.30;;;;;;5071448;28;20194;-67
2023/08/31 12:13:10;;;;;;;10.80;5.73;;;14.40;86.80;;;;;;5070554;28;20190;-66
2023/08/31 12:15:37;;;;;;;16.33;5.60;;;14.40;86.80;;;;;;5067807;28;20186;-68
2023/08/31 12:18:23;;;;;;;17.97;6.17;;;14.30;87.00;;;;;;5070167;28;20186;-73
2023/08/31 12:20:53;;;;;;;15.53;6.40;;;14.30;87.00;;;;;;5068414;28;20290;-66
2023/08/31 12:23:22;;;;;;;18.00;6.67;;;14.30;87.00;;;;;;5067010;28;20258;-70
2023/08/31 12:25:54;;;;;;;17.37;6.17;;;14.30;87.10;;;;;;5070400;28;20266;-66
2023/08/31 12:28:23;;;;;;;14.47;6.77;;;14.20;87.40;;;;;;5071102;28;20182;-72
2023/08/31 12:30:53;;;;;;;26.03;6.97;;;14.30;87.60;;;;;;5067802;28;20734;-71
2023/08/31 12:33:22;;;;;;;15.23;6.40;;;14.20;87.40;;;;;;5067892;28;20218;-67
2023/08/31 12:35:50;;;;;;;15.50;7.07;;;14.20;87.70;;;;;;5070794;28;20183;-70
2023/08/31 12:38:18;;;;;;;19.73;6.43;;;14.20;87.90;;;;;;5067788;28;20183;-67
2023/08/31 12:40:46;;;;;;;19.67;7.17;;;14.20;87.70;;;;;;5067389;28;20211;-66
2023/08/31 12:43:13;;;;;;;15.40;6.17;;;14.10;87.60;;;;;;5071853;28;20589;-67
2023/08/31 12:45:41;;;;;;;14.47;6.50;;;14.00;87.80;;;;;;5070942;28;20237;-67
2023/08/31 12:48:08;;;;;;;17.70;7.33;;;14.00;88.20;;;;;;5070444;28;20179;-70
2023/08/31 12:50:35;;;;;;;13.87;7.43;;;14.10;88.10;;;;;;5067150;28;20180;-65
2023/08/31 12:53:03;;;;;;;17.60;6.50;;;14.00;88.10;;;;;;5071998;28;20524;-68